KTOR/TOR METAR and TAF weather

Enter ICAO airport designator
Station Type Date Time Source
KTOR METAR 2018/12/13 19:53 UTC NOAA

KTOR 131953Z AUTO 27013KT 10SM CLR 04/M11 A3018 RMK AO2 SLP239 T00441111


Station Type Date Time Source
KTOR Decoded METAR 2018/12/13 19:53 UTC NOAA

TORRINGTON MUNICIPAL AIRPORT, WY, United States (KTOR) 42-03N 104-09W 1277M
Dec 13, 2018 - 02:53 PM EST / 2018.12.13 1953 UTC
Wind: from the W (270 degrees) at 15 MPH (13 KT):0
Visibility: 10 mile(s):0
Sky conditions: clear
Temperature: 39.9 F (4.4 C)
Dew Point: 12.0 F (-11.1 C)
Relative Humidity: 31%
Pressure (altimeter): 30.18 in. Hg (1022 hPa)
ob: KTOR 131953Z AUTO 27013KT 10SM CLR 04/M11 A3018 RMK AO2 SLP239 T00441111
cycle: 20

Station Type Date Time Source
KTOR TAF UTC NOAA

Error!


Example: see airport list